createdAt,value
2024-05-09T00:01:26.141Z,3.08
2024-05-09T00:04:14.045Z,2.95
2024-05-09T00:06:54.131Z,3.20
2024-05-09T00:09:41.057Z,3.35
2024-05-09T00:12:21.319Z,3.50
2024-05-09T00:15:08.077Z,3.33
2024-05-09T00:17:55.174Z,3.58
2024-05-09T00:20:42.171Z,3.03
2024-05-09T00:23:22.109Z,3.55
2024-05-09T00:26:09.164Z,3.22
2024-05-09T00:28:49.088Z,3.50
2024-05-09T00:31:36.133Z,3.58
2024-05-09T00:34:23.219Z,3.45
2024-05-09T00:37:17.071Z,2.97
2024-05-09T00:40:05.815Z,3.22
2024-05-09T00:42:47.151Z,2.88
2024-05-09T00:45:34.113Z,3.78
2024-05-09T00:48:17.743Z,3.28
2024-05-09T00:51:08.110Z,3.53
2024-05-09T00:53:49.288Z,3.05
2024-05-09T00:56:36.116Z,3.20
2024-05-09T00:59:23.146Z,3.15
2024-05-09T01:02:04.390Z,3.38
2024-05-09T01:04:51.279Z,2.92
2024-05-09T01:07:38.115Z,3.38
2024-05-09T01:10:24.316Z,3.40
2024-05-09T01:13:20.125Z,3.17
2024-05-09T01:16:07.122Z,3.55
2024-05-09T01:19:01.282Z,3.25
2024-05-09T01:21:48.159Z,3.40
2024-05-09T01:24:28.194Z,3.55
2024-05-09T01:27:15.151Z,3.47
2024-05-09T01:30:03.055Z,3.38
2024-05-09T01:32:51.372Z,3.30
2024-05-09T01:35:31.348Z,3.42
2024-05-09T01:38:19.201Z,3.40
2024-05-09T01:40:59.274Z,3.30
2024-05-09T01:43:46.236Z,3.47
2024-05-09T01:46:26.255Z,3.33
2024-05-09T01:49:14.373Z,3.22
2024-05-09T01:51:54.284Z,3.85
2024-05-09T01:54:41.195Z,3.72
2024-05-09T01:57:28.162Z,3.85
2024-05-09T02:00:22.243Z,3.47
2024-05-09T02:03:10.189Z,3.58
2024-05-09T02:05:58.217Z,3.38
2024-05-09T02:08:38.396Z,3.30
2024-05-09T02:11:25.399Z,3.92
2024-05-09T02:14:06.928Z,3.33
2024-05-09T02:16:54.406Z,3.50
2024-05-09T02:19:41.202Z,3.70
2024-05-09T02:22:35.250Z,3.60
2024-05-09T02:25:22.212Z,3.88
2024-05-09T02:28:09.236Z,3.53
2024-05-09T02:30:56.293Z,3.33
2024-05-09T02:33:37.630Z,3.55
2024-05-09T02:36:18.298Z,3.47
2024-05-09T02:39:05.221Z,3.95
2024-05-09T02:41:52.326Z,3.70
2024-05-09T02:44:32.296Z,3.63
2024-05-09T02:47:19.457Z,4.15
2024-05-09T02:49:59.397Z,3.60
2024-05-09T02:52:46.306Z,3.47
2024-05-09T02:55:26.317Z,3.55
2024-05-09T02:58:17.273Z,3.45
2024-05-09T03:01:04.359Z,3.35
2024-05-09T03:03:44.430Z,3.55
2024-05-09T03:06:31.333Z,3.25
2024-05-09T03:09:11.277Z,3.95
2024-05-09T03:11:52.380Z,3.75
2024-05-09T03:14:39.366Z,3.88
2024-05-09T03:17:26.499Z,3.38
2024-05-09T03:20:27.594Z,4.05
2024-05-09T03:23:19.372Z,3.47
2024-05-09T03:25:59.463Z,3.40
2024-05-09T03:28:46.363Z,3.42
2024-05-09T03:31:26.380Z,3.38
2024-05-09T03:34:20.330Z,3.78
2024-05-09T03:37:07.387Z,3.70
2024-05-09T03:39:47.400Z,3.70
2024-05-09T03:42:34.306Z,3.50
2024-05-09T03:45:21.343Z,4.03
2024-05-09T03:48:08.831Z,3.50
2024-05-09T03:50:49.378Z,4.35
2024-05-09T03:53:36.512Z,3.45
2024-05-09T03:56:16.383Z,3.80
2024-05-09T03:59:11.387Z,3.63
2024-05-09T04:01:52.101Z,3.50
2024-05-09T04:04:39.499Z,3.70
2024-05-09T04:07:20.035Z,3.60
2024-05-09T04:10:11.111Z,3.25
2024-05-09T04:13:01.484Z,3.63
2024-05-09T04:15:42.446Z,3.67
2024-05-09T04:18:29.466Z,3.55
2024-05-09T04:21:16.481Z,3.45
2024-05-09T04:23:56.380Z,4.25
2024-05-09T04:26:43.527Z,3.22
2024-05-09T04:29:23.542Z,3.50
2024-05-09T04:32:11.497Z,3.60
2024-05-09T04:34:51.452Z,3.45
2024-05-09T04:37:38.418Z,3.60
2024-05-09T04:40:27.681Z,3.60
2024-05-09T04:43:25.399Z,3.67
2024-05-09T04:46:05.495Z,3.92
2024-05-09T04:48:52.573Z,3.22
2024-05-09T04:51:32.562Z,3.50
2024-05-09T04:54:26.239Z,3.42
2024-05-09T04:57:20.450Z,3.20
2024-05-09T05:00:14.324Z,3.40
2024-05-09T05:02:57.594Z,3.90
2024-05-09T05:05:45.679Z,4.22
2024-05-09T05:08:33.639Z,3.58
2024-05-09T05:11:13.846Z,3.53
2024-05-09T05:14:00.532Z,3.88
2024-05-09T05:16:40.512Z,4.00
2024-05-09T05:19:34.758Z,3.88
2024-05-09T05:22:21.567Z,3.78
2024-05-09T05:25:01.445Z,3.92
2024-05-09T05:27:48.601Z,3.53
2024-05-09T05:30:32.938Z,4.28
2024-05-09T05:33:18.554Z,3.92
2024-05-09T05:36:05.510Z,3.90
2024-05-09T05:38:52.691Z,3.45
2024-05-09T05:41:32.490Z,4.50
2024-05-09T05:44:19.574Z,3.50
2024-05-09T05:46:59.528Z,4.05
2024-05-09T05:49:40.188Z,3.58
2024-05-09T05:52:27.483Z,3.65
2024-05-09T05:55:14.607Z,3.95
2024-05-09T05:58:01.541Z,3.70
2024-05-09T06:00:42.408Z,3.70
2024-05-09T06:03:29.656Z,3.58
2024-05-09T06:06:10.629Z,4.15
2024-05-09T06:08:57.590Z,3.60
2024-05-09T06:11:37.667Z,3.70
2024-05-09T06:14:24.604Z,3.97
2024-05-09T06:17:04.605Z,3.70
2024-05-09T06:20:13.249Z,4.70
2024-05-09T06:23:03.637Z,4.80
2024-05-09T06:25:44.868Z,4.25
2024-05-09T06:28:31.549Z,3.53
2024-05-09T06:31:11.798Z,4.20
2024-05-09T06:33:58.747Z,3.90
2024-05-09T06:36:45.565Z,3.95
2024-05-09T06:39:32.634Z,3.88
2024-05-09T06:42:12.601Z,3.22
2024-05-09T06:45:02.155Z,3.92
2024-05-09T06:47:41.693Z,4.22
2024-05-09T06:50:36.837Z,4.20
2024-05-09T06:53:23.860Z,4.38
2024-05-09T06:56:10.633Z,3.83
2024-05-09T06:58:57.646Z,4.68
2024-05-09T07:01:38.687Z,4.10
2024-05-09T07:04:25.751Z,4.30
2024-05-09T07:07:07.444Z,4.03
2024-05-09T07:09:54.588Z,3.67
2024-05-09T07:12:34.861Z,3.90
2024-05-09T07:15:22.666Z,4.18
2024-05-09T07:18:09.860Z,4.00
2024-05-09T07:21:03.671Z,3.65
2024-05-09T07:23:50.697Z,3.58
2024-05-09T07:26:30.657Z,3.50
2024-05-09T07:29:18.745Z,3.42
2024-05-09T07:31:58.682Z,3.20
2024-05-09T07:34:45.651Z,3.25
2024-05-09T07:37:32.773Z,3.53
2024-05-09T07:40:24.183Z,3.35
2024-05-09T07:43:16.787Z,3.83
2024-05-09T07:45:59.669Z,3.80
2024-05-09T07:53:14.150Z,4.00
2024-05-09T07:54:43.852Z,3.92
2024-05-09T07:57:23.772Z,3.83
2024-05-09T08:00:06.571Z,3.75
2024-05-09T08:02:53.740Z,3.67
2024-05-09T08:05:40.765Z,3.20
2024-05-09T08:08:20.763Z,3.80
2024-05-09T08:11:09.808Z,3.83
2024-05-09T08:13:56.695Z,3.22
2024-05-09T08:16:43.772Z,3.88
2024-05-09T08:19:37.855Z,3.70
2024-05-09T08:22:24.770Z,3.72
2024-05-09T08:25:05.826Z,3.53
2024-05-09T08:27:52.946Z,3.95
2024-05-09T08:30:36.627Z,4.10
2024-05-09T08:33:24.821Z,3.95
2024-05-09T08:36:04.804Z,3.67
2024-05-09T08:38:51.796Z,4.10
2024-05-09T08:41:31.803Z,3.70
2024-05-09T08:44:18.726Z,5.65
2024-05-09T08:46:58.801Z,5.72
2024-05-09T08:49:47.790Z,3.70
2024-05-09T08:52:34.766Z,4.60
2024-05-09T08:55:21.905Z,4.05
2024-05-09T08:58:02.785Z,3.83
2024-05-09T09:00:52.021Z,8.27
2024-05-09T09:03:35.030Z,5.90
2024-05-09T09:06:24.837Z,18.42
2024-05-09T09:09:06.790Z,4.25
2024-05-09T09:11:53.860Z,3.47
2024-05-09T09:14:33.751Z,3.55
2024-05-09T09:17:24.439Z,3.72
2024-05-09T09:20:16.594Z,3.05
2024-05-09T09:23:02.978Z,3.90
2024-05-09T09:25:49.835Z,3.92
2024-05-09T09:28:30.071Z,4.82
2024-05-09T09:31:16.897Z,4.10
2024-05-09T09:33:57.074Z,4.07
2024-05-09T09:36:46.954Z,4.65
2024-05-09T09:39:28.905Z,7.22
2024-05-09T09:42:17.812Z,5.57
2024-05-09T09:45:04.881Z,16.52
2024-05-09T09:47:54.942Z,6.40
2024-05-09T09:50:36.131Z,9.45
2024-05-09T09:53:23.848Z,13.77
2024-05-09T09:56:11.855Z,18.98
2024-05-09T09:59:01.531Z,4.03
2024-05-09T10:01:52.018Z,18.88
2024-05-09T10:04:32.002Z,20.98
2024-05-09T10:07:20.916Z,23.70
2024-05-09T10:10:10.984Z,19.15
2024-05-09T10:13:11.878Z,24.85
2024-05-09T10:15:59.962Z,26.02
2024-05-09T10:18:47.101Z,4.22
2024-05-09T10:21:34.033Z,18.63
2024-05-09T10:24:13.884Z,19.77
2024-05-09T10:27:02.958Z,16.05
2024-05-09T10:29:44.887Z,6.60
2024-05-09T10:32:28.226Z,4.07
2024-05-09T10:35:25.885Z,5.35
2024-05-09T10:38:13.876Z,4.80
2024-05-09T10:41:01.890Z,3.78
2024-05-09T10:43:50.019Z,3.10
2024-05-09T10:46:31.004Z,3.88
2024-05-09T10:49:14.602Z,4.28
2024-05-09T10:52:03.978Z,4.47
2024-05-09T10:54:49.067Z,4.03
2024-05-09T10:57:51.971Z,4.00
2024-05-09T11:00:39.113Z,3.40
2024-05-09T11:03:26.163Z,3.67
2024-05-09T11:06:13.946Z,3.45
2024-05-09T11:08:55.030Z,4.00
2024-05-09T11:11:42.015Z,3.28
2024-05-09T11:14:31.930Z,3.38
2024-05-09T11:17:12.681Z,3.17
2024-05-09T11:20:00.034Z,3.75
2024-05-09T11:22:40.656Z,3.40
2024-05-09T11:25:27.990Z,2.88
2024-05-09T11:28:15.054Z,3.28
2024-05-09T11:30:57.094Z,3.53
2024-05-09T11:33:51.058Z,3.20
2024-05-09T11:36:31.123Z,3.42
2024-05-09T11:39:17.999Z,3.33
2024-05-09T11:41:58.083Z,3.05
2024-05-09T11:44:44.992Z,3.35
2024-05-09T11:47:25.172Z,3.10
2024-05-09T11:50:19.518Z,3.35
2024-05-09T11:53:07.074Z,3.03
2024-05-09T11:55:53.995Z,3.20
2024-05-09T11:58:36.736Z,3.35
2024-05-09T12:01:27.924Z,3.13
2024-05-09T12:04:15.289Z,3.38
2024-05-09T12:06:55.811Z,3.20
2024-05-09T12:09:43.139Z,3.25
2024-05-09T12:12:23.675Z,2.80
2024-05-09T12:15:10.026Z,3.25
2024-05-09T12:17:59.937Z,2.97
2024-05-09T12:20:41.207Z,3.45
2024-05-09T12:23:28.102Z,3.63
2024-05-09T12:26:08.231Z,3.08
2024-05-09T12:28:55.038Z,3.05
2024-05-09T12:31:35.168Z,3.10
2024-05-09T12:34:23.117Z,3.33
2024-05-09T12:37:18.083Z,2.88
2024-05-09T12:40:10.604Z,3.05
2024-05-09T12:42:57.120Z,3.13
2024-05-09T12:45:38.119Z,3.03
2024-05-09T12:48:25.194Z,3.63
2024-05-09T12:51:06.068Z,3.60
2024-05-09T12:53:53.081Z,3.10
2024-05-09T12:56:40.177Z,3.08
2024-05-09T12:59:20.098Z,3.58
2024-05-09T13:02:07.446Z,3.05
2024-05-09T13:04:47.361Z,3.38
2024-05-09T13:07:34.113Z,3.45
2024-05-09T13:10:23.044Z,3.03
2024-05-09T13:13:17.319Z,3.38
2024-05-09T13:15:57.308Z,3.95
2024-05-09T13:18:44.279Z,3.28
2024-05-09T13:21:38.175Z,4.00
2024-05-09T13:24:25.141Z,4.05
2024-05-09T13:27:05.566Z,3.80
2024-05-09T13:29:52.146Z,3.22
2024-05-09T13:32:32.414Z,3.22
2024-05-09T13:35:19.163Z,3.33
2024-05-09T13:38:08.214Z,4.05
2024-05-09T13:40:48.537Z,3.78
2024-05-09T13:43:36.247Z,3.42
2024-05-09T13:46:16.175Z,3.30
2024-05-09T13:49:03.343Z,3.15
2024-05-09T13:51:43.258Z,2.80
2024-05-09T13:54:30.280Z,3.03
2024-05-09T13:57:11.219Z,3.38
2024-05-09T13:59:58.192Z,3.72
2024-05-09T14:02:52.329Z,2.92
2024-05-09T14:05:39.488Z,3.85
2024-05-09T14:08:22.852Z,3.33
2024-05-09T14:11:04.083Z,3.45
2024-05-09T14:13:51.215Z,4.00
2024-05-09T14:16:32.626Z,3.80
2024-05-09T14:19:19.261Z,3.95
2024-05-09T14:22:06.440Z,3.58
2024-05-09T14:24:53.330Z,3.80
2024-05-09T14:27:33.358Z,3.03
2024-05-09T14:30:29.741Z,4.00
2024-05-09T14:33:17.470Z,3.35
2024-05-09T14:36:04.328Z,3.58
2024-05-09T14:38:54.610Z,3.45
2024-05-09T14:45:07.327Z,3.75
2024-05-09T14:47:54.499Z,3.83
2024-05-09T14:50:37.928Z,3.25
2024-05-09T14:53:26.310Z,3.20
2024-05-09T14:56:13.284Z,3.25
2024-05-09T14:59:00.350Z,3.90
2024-05-09T15:01:40.435Z,3.67
2024-05-09T15:04:27.463Z,3.53
2024-05-09T15:07:14.457Z,3.65
2024-05-09T15:10:05.784Z,4.13
2024-05-09T15:12:56.430Z,3.60
2024-05-09T15:15:36.389Z,2.80
2024-05-09T15:18:23.448Z,3.33
2024-05-09T15:21:17.310Z,3.72
2024-05-09T15:24:04.307Z,3.67
2024-05-09T15:26:44.453Z,3.97
2024-05-09T15:29:32.320Z,3.92
2024-05-09T15:32:14.714Z,3.53
2024-05-09T15:35:04.355Z,3.45
2024-05-09T15:37:46.512Z,2.90
2024-05-09T15:40:39.555Z,3.40
2024-05-09T15:43:20.496Z,3.45
2024-05-09T15:46:07.395Z,3.95
2024-05-09T15:48:47.568Z,3.55
2024-05-09T15:51:34.360Z,4.10
2024-05-09T15:54:14.452Z,3.63
2024-05-09T15:57:01.356Z,4.18
2024-05-09T15:59:49.369Z,3.47
2024-05-09T16:02:36.459Z,4.30
2024-05-09T16:05:16.551Z,3.38
2024-05-09T16:08:03.420Z,3.78
2024-05-09T16:10:47.820Z,3.83
2024-05-09T16:13:35.446Z,3.75
2024-05-09T16:16:16.688Z,3.50
2024-05-09T16:19:03.435Z,3.95
2024-05-09T16:21:57.427Z,3.78
2024-05-09T16:24:38.309Z,4.38
2024-05-09T16:27:26.402Z,3.25
2024-05-09T16:30:21.326Z,3.78
2024-05-09T16:33:11.140Z,3.92
2024-05-09T16:35:58.403Z,4.38
2024-05-09T16:38:46.441Z,6.93
2024-05-09T16:41:33.606Z,4.47
2024-05-09T16:44:13.478Z,7.20
2024-05-09T16:47:00.561Z,7.00
2024-05-09T16:49:40.439Z,5.38
2024-05-09T16:52:27.512Z,5.47
2024-05-09T16:55:07.483Z,4.85
2024-05-09T16:57:55.691Z,4.72
2024-05-09T17:00:43.944Z,3.80
2024-05-09T17:03:24.684Z,4.20
2024-05-09T17:06:12.454Z,3.90
2024-05-09T17:09:08.098Z,4.18
2024-05-09T17:11:58.784Z,3.95
2024-05-09T17:14:38.458Z,3.90
2024-05-09T17:17:20.063Z,2.90
2024-05-09T17:20:08.562Z,3.85
2024-05-09T17:22:59.559Z,2.92
2024-05-09T17:25:40.570Z,2.50
2024-05-09T17:28:27.690Z,2.65
2024-05-09T17:31:07.560Z,2.88
2024-05-09T17:33:48.266Z,3.38
2024-05-09T17:36:42.526Z,3.50
2024-05-09T17:39:29.523Z,3.35
2024-05-09T17:42:09.672Z,3.22
2024-05-09T17:44:57.510Z,3.17
2024-05-09T17:47:37.745Z,3.17
2024-05-09T17:50:30.996Z,3.22
2024-05-09T17:53:16.637Z,3.55
2024-05-09T17:56:05.565Z,3.97
2024-05-09T17:58:46.523Z,2.97
2024-05-09T18:01:33.677Z,3.60
2024-05-09T18:04:14.081Z,3.65
2024-05-09T18:07:00.673Z,4.35
2024-05-09T18:09:47.586Z,4.00
2024-05-09T18:12:34.713Z,4.47
2024-05-09T18:15:28.575Z,4.15
2024-05-09T18:18:18.457Z,3.90
2024-05-09T18:21:06.555Z,6.40
2024-05-09T18:23:47.346Z,6.68
2024-05-09T18:26:34.553Z,23.92
2024-05-09T18:29:22.450Z,40.95
2024-05-09T18:32:02.700Z,31.42
2024-05-09T18:34:49.791Z,27.17
2024-05-09T18:37:29.724Z,4.68
2024-05-09T18:40:24.840Z,3.67
2024-05-09T18:43:11.750Z,21.85
2024-05-09T18:45:58.674Z,19.85
2024-05-09T18:48:45.808Z,10.95
2024-05-09T18:51:33.849Z,16.17
2024-05-09T18:54:13.657Z,16.65
2024-05-09T18:57:00.741Z,8.68
2024-05-09T18:59:40.614Z,11.10
2024-05-09T19:02:27.812Z,4.25
2024-05-09T19:05:14.763Z,31.65
2024-05-09T19:07:54.747Z,13.82
2024-05-09T19:10:43.698Z,16.80
2024-05-09T19:13:25.308Z,6.05
2024-05-09T19:16:14.825Z,7.30
2024-05-09T19:19:03.020Z,22.20
2024-05-09T19:21:56.688Z,20.92
2024-05-09T19:24:43.764Z,23.05
2024-05-09T19:27:24.360Z,18.65
2024-05-09T19:30:21.031Z,22.83
2024-05-09T19:33:13.743Z,24.73
2024-05-09T19:36:02.664Z,26.80
2024-05-09T19:38:51.492Z,20.27
2024-05-09T19:41:31.698Z,25.45
2024-05-09T19:44:18.686Z,19.60
2024-05-09T19:46:59.771Z,35.75
2024-05-09T19:49:46.792Z,17.45
2024-05-09T19:52:33.768Z,35.00
2024-05-09T19:55:20.842Z,31.10
2024-05-09T19:58:03.607Z,25.35
2024-05-09T20:00:53.788Z,11.68
2024-05-09T20:03:37.246Z,32.75
2024-05-09T20:06:25.724Z,32.58
2024-05-09T20:09:19.753Z,17.30
2024-05-09T20:12:06.783Z,33.88
2024-05-09T20:14:46.789Z,25.80
2024-05-09T20:17:33.840Z,15.18
2024-05-09T20:20:38.477Z,32.75
2024-05-09T20:23:28.724Z,41.40
2024-05-09T20:26:09.091Z,48.85
2024-05-09T20:28:55.855Z,46.95
2024-05-09T20:31:35.819Z,26.50
2024-05-09T20:34:22.820Z,26.52
2024-05-09T20:37:02.865Z,37.13
2024-05-09T20:39:49.816Z,30.98
2024-05-09T20:42:29.844Z,37.13
2024-05-09T20:45:16.781Z,37.00
2024-05-09T20:47:57.553Z,38.47
2024-05-09T20:50:44.905Z,42.72
2024-05-09T20:53:24.848Z,48.65
2024-05-09T20:56:12.801Z,55.50
2024-05-09T20:58:59.801Z,54.28
2024-05-09T21:01:48.812Z,58.35
2024-05-09T21:04:29.096Z,60.72
2024-05-09T21:07:15.953Z,62.97
2024-05-09T21:09:55.937Z,60.83
2024-05-09T21:12:43.881Z,62.75
2024-05-09T21:15:23.886Z,61.35
2024-05-09T21:18:10.860Z,52.15
2024-05-09T21:20:57.818Z,50.65
2024-05-09T21:23:38.546Z,56.95
2024-05-09T21:26:25.844Z,59.22
2024-05-09T21:29:13.198Z,59.30
2024-05-09T21:31:52.828Z,58.25
2024-05-09T21:34:39.971Z,59.78
2024-05-09T21:37:20.035Z,60.15
2024-05-09T21:40:13.412Z,59.47
2024-05-09T21:42:57.460Z,58.72
2024-05-09T21:45:46.843Z,56.35
2024-05-09T21:48:26.951Z,57.40
2024-05-09T21:51:22.876Z,54.65
2024-05-09T21:54:16.865Z,40.65
2024-05-09T21:56:57.521Z,8.00
2024-05-09T21:59:43.870Z,20.00
2024-05-09T22:02:24.670Z,44.17
2024-05-09T22:05:12.110Z,48.35
2024-05-09T22:07:52.656Z,55.72
2024-05-09T22:10:40.007Z,58.25
2024-05-09T22:13:26.923Z,58.05
2024-05-09T22:16:09.084Z,58.63
2024-05-09T22:18:56.026Z,58.28
2024-05-09T22:21:50.049Z,58.90
2024-05-09T22:24:30.584Z,59.65
2024-05-09T22:27:18.904Z,60.22
2024-05-09T22:29:59.741Z,60.65
2024-05-09T22:32:46.968Z,59.83
2024-05-09T22:35:41.242Z,51.70
2024-05-09T22:38:21.668Z,58.35
2024-05-09T22:41:08.941Z,54.22
2024-05-09T22:43:55.972Z,51.55
2024-05-09T22:46:42.952Z,27.35
2024-05-09T22:49:30.017Z,33.60
2024-05-09T22:52:10.207Z,48.35
2024-05-09T22:54:57.038Z,50.25
2024-05-09T22:57:37.087Z,42.25
2024-05-09T23:03:08.072Z,28.35
2024-05-09T23:05:55.025Z,29.10
2024-05-09T23:08:35.038Z,9.07
2024-05-09T23:11:22.107Z,19.48
2024-05-09T23:14:08.974Z,8.65
2024-05-09T23:16:49.696Z,8.25
2024-05-09T23:19:37.042Z,8.45
2024-05-09T23:22:31.017Z,8.00
2024-05-09T23:25:18.239Z,8.18
2024-05-09T23:27:58.086Z,8.32
2024-05-09T23:30:40.885Z,7.15
2024-05-09T23:33:29.054Z,7.20
2024-05-09T23:36:16.083Z,7.00
2024-05-09T23:38:55.989Z,16.65
2024-05-09T23:41:36.675Z,21.50
2024-05-09T23:44:23.046Z,20.85
2024-05-09T23:47:11.088Z,27.30
2024-05-09T23:49:51.048Z,17.58
2024-05-09T23:52:39.115Z,13.07
2024-05-09T23:55:19.204Z,8.98
2024-05-09T23:58:06.297Z,7.78
